Time;durP1;ratioP1;P1;durP2;ratioP2;P2;SDS_P1;SDS_P2;PMS_P1;PMS_P2;Temp;Humidity;BMP_temperature;BMP_pressure;BME280_temperature;BME280_humidity;BME280_pressure;Samples;Min_cycle;Max_cycle;Signal;HPM_P1;HPM_P2
2021/12/21 00:00:29;;;;;;;13.27;5.80;;;-2.90;99.90;;;;;;4915700;29;20426;-77
2021/12/21 00:02:55;;;;;;;17.10;5.50;;;-2.90;99.90;;;;;;4915598;29;20544;-77
2021/12/21 00:05:25;;;;;;;8.50;5.03;;;-2.90;99.90;;;;;;4915529;29;20444;-77
2021/12/21 00:07:53;;;;;;;11.70;5.73;;;-3.00;99.90;;;;;;4914364;29;20242;-77
2021/12/21 00:10:20;;;;;;;10.70;5.73;;;-3.00;99.90;;;;;;4915423;29;20423;-77
2021/12/21 00:13:02;;;;;;;11.23;5.40;;;-3.00;99.90;;;;;;4915315;29;20442;-77
2021/12/21 00:15:44;;;;;;;12.87;4.53;;;-3.10;99.90;;;;;;4915637;29;20979;-77
2021/12/21 00:23:31;;;;;;;17.60;6.20;;;-3.10;99.90;;;;;;4915160;29;20425;-77
2021/12/21 00:25:59;;;;;;;8.90;4.97;;;-3.10;99.90;;;;;;4915489;29;20414;-77
2021/12/21 00:28:25;;;;;;;19.30;6.00;;;-3.20;99.90;;;;;;4915205;29;20477;-77
2021/12/21 00:30:51;;;;;;;9.70;4.70;;;-3.20;99.90;;;;;;4915148;29;20409;-78
2021/12/21 00:33:17;;;;;;;11.40;5.17;;;-3.20;99.90;;;;;;4914980;29;20741;-77
2021/12/21 00:35:44;;;;;;;9.60;5.50;;;-3.20;99.90;;;;;;4915444;29;20882;-78
2021/12/21 00:38:09;;;;;;;15.97;6.33;;;-3.20;99.90;;;;;;4915063;29;20405;-77
2021/12/21 00:40:35;;;;;;;15.90;5.30;;;-3.20;99.90;;;;;;4915202;29;20494;-78
2021/12/21 00:43:01;;;;;;;7.87;5.23;;;-3.20;99.90;;;;;;4918799;29;20214;-78
2021/12/21 00:45:26;;;;;;;19.93;5.37;;;-3.20;99.90;;;;;;4919123;29;20445;-77
2021/12/21 00:47:52;;;;;;;18.17;5.17;;;-3.30;99.90;;;;;;4919015;29;20221;-77
2021/12/21 00:50:19;;;;;;;14.50;6.03;;;-3.20;99.90;;;;;;4918953;29;20257;-77
2021/12/21 00:52:50;;;;;;;22.50;4.90;;;-3.20;99.90;;;;;;4918770;29;20261;-75
2021/12/21 00:55:16;;;;;;;13.40;5.70;;;-3.20;99.90;;;;;;4919126;29;20924;-78
2021/12/21 00:57:41;;;;;;;13.80;5.80;;;-3.20;99.90;;;;;;4919020;29;20982;-77
2021/12/21 05:31:50;;;;;;;8.03;3.60;;;-4.70;99.90;;;;;;5373168;23;20513;-75
2021/12/21 05:34:16;;;;;;;5.50;4.50;;;-4.80;99.90;;;;;;4916093;29;20473;-77
2021/12/21 05:36:41;;;;;;;12.90;3.90;;;-4.70;99.90;;;;;;4919343;29;20402;-78
2021/12/21 05:39:16;;;;;;;11.90;4.40;;;-4.70;99.90;;;;;;4921620;29;20915;-79
2021/12/21 05:41:53;;;;;;;12.60;4.43;;;-4.70;99.90;;;;;;4922341;29;20194;-79
2021/12/21 05:44:21;;;;;;;5.20;3.70;;;-4.70;99.90;;;;;;4921867;29;20909;-78
2021/12/21 05:46:47;;;;;;;7.70;4.00;;;-4.70;99.90;;;;;;4910181;29;20486;-78
2021/12/21 05:49:13;;;;;;;9.90;4.00;;;-4.70;99.90;;;;;;4919947;29;20426;-78
2021/12/21 05:51:38;;;;;;;9.33;3.70;;;-4.70;99.90;;;;;;4919174;29;20450;-78
2021/12/21 05:54:04;;;;;;;10.50;4.30;;;-4.70;99.90;;;;;;4919271;29;20186;-78
2021/12/21 05:56:30;;;;;;;9.00;4.00;;;-4.70;99.90;;;;;;4918576;29;20832;-78
2021/12/21 05:58:57;;;;;;;10.27;4.30;;;-4.70;99.90;;;;;;4918947;29;20411;-79
2021/12/21 06:01:22;;;;;;;7.93;4.00;;;-4.70;99.90;;;;;;4918353;29;20289;-77
2021/12/21 06:03:48;;;;;;;6.40;3.60;;;-4.70;99.90;;;;;;4917681;29;20548;-78
2021/12/21 06:06:15;;;;;;;8.50;5.20;;;-4.80;99.90;;;;;;4918110;29;20181;-78
2021/12/21 06:08:43;;;;;;;6.37;3.40;;;-4.80;99.90;;;;;;4917741;29;20322;-78
2021/12/21 06:11:09;;;;;;;7.13;3.30;;;-4.80;99.90;;;;;;4917793;29;20424;-78
2021/12/21 06:16:26;;;;;;;9.20;4.10;;;-4.90;99.90;;;;;;4918024;29;20492;-77
2021/12/21 06:27:23;;;;;;;7.40;3.97;;;-4.90;99.90;;;;;;4856693;29;20442;-77
2021/12/21 06:29:49;;;;;;;23.83;5.10;;;-4.90;99.90;;;;;;4903837;29;20449;-78
2021/12/21 06:32:15;;;;;;;16.60;4.60;;;-4.90;99.90;;;;;;4917217;29;20214;-77
2021/12/21 06:34:41;;;;;;;14.10;4.73;;;-4.90;99.90;;;;;;4917550;29;20186;-79
2021/12/21 06:37:07;;;;;;;9.80;3.97;;;-4.90;99.90;;;;;;4916943;29;20730;-77
2021/12/21 06:39:33;;;;;;;6.73;4.17;;;-4.80;99.90;;;;;;4916587;29;20927;-76
2021/12/21 06:41:59;;;;;;;18.97;4.77;;;-4.90;99.90;;;;;;4917395;29;20442;-78
2021/12/21 06:44:25;;;;;;;7.87;4.67;;;-4.90;99.90;;;;;;4917133;29;20414;-78
2021/12/21 06:51:07;;;;;;;8.37;4.33;;;-4.90;99.90;;;;;;4917249;29;20446;-77
2021/12/21 06:52:21;;;;;;;10.60;4.40;;;-4.90;99.90;;;;;;4917383;29;20445;-78
2021/12/21 06:54:46;;;;;;;17.47;4.93;;;-5.00;99.90;;;;;;4917339;29;20411;-78
2021/12/21 06:57:12;;;;;;;10.83;4.40;;;-5.00;99.90;;;;;;4916234;29;20675;-78
2021/12/21 06:59:37;;;;;;;12.90;5.10;;;-5.00;99.90;;;;;;4917387;29;20183;-78
2021/12/21 07:02:03;;;;;;;16.40;4.77;;;-5.00;99.90;;;;;;4917306;29;20914;-78
2021/12/21 07:04:29;;;;;;;9.20;5.00;;;-4.90;99.90;;;;;;4917406;29;20182;-78
2021/12/21 07:06:57;;;;;;;9.13;5.20;;;-5.00;99.90;;;;;;4919468;29;20435;-78
2021/12/21 07:09:33;;;;;;;14.70;5.00;;;-5.00;99.90;;;;;;4918740;29;20175;-78
2021/12/21 07:18:29;;;;;;;8.50;4.60;;;-4.90;99.90;;;;;;4916727;29;20806;-75
2021/12/21 07:20:18;;;;;;;9.57;4.90;;;-4.80;99.90;;;;;;4902969;29;20918;-75
2021/12/21 07:22:44;;;;;;;7.37;4.40;;;-4.80;99.90;;;;;;4914980;29;20454;-72
2021/12/21 07:25:10;;;;;;;7.97;4.53;;;-4.70;99.90;;;;;;4916098;29;20182;-76
2021/12/21 07:27:35;;;;;;;7.33;4.67;;;-4.70;99.90;;;;;;4916455;29;20206;-75
2021/12/21 07:30:02;;;;;;;9.23;5.20;;;-4.70;99.90;;;;;;4915835;29;20253;-74
2021/12/21 07:32:27;;;;;;;13.83;5.67;;;-4.70;99.90;;;;;;4916254;29;20205;-74
2021/12/21 07:34:53;;;;;;;8.43;4.27;;;-4.70;99.90;;;;;;4915703;29;20440;-75
2021/12/21 07:37:18;;;;;;;17.17;4.80;;;-4.70;99.90;;;;;;4916123;29;20230;-75
2021/12/21 07:39:44;;;;;;;4.67;3.47;;;-4.70;99.90;;;;;;4916064;29;20174;-75
2021/12/21 07:42:09;;;;;;;10.13;5.00;;;-4.70;99.90;;;;;;4916090;29;20208;-75
2021/12/21 07:44:35;;;;;;;7.20;4.40;;;-4.60;99.90;;;;;;4917237;29;20562;-75
2021/12/21 07:47:01;;;;;;;11.10;4.67;;;-4.60;99.90;;;;;;4916404;29;20702;-75
2021/12/21 07:49:26;;;;;;;6.90;3.20;;;-4.50;99.90;;;;;;4915790;29;20182;-75
2021/12/21 07:51:52;;;;;;;16.40;4.63;;;-4.50;99.90;;;;;;4914965;29;20209;-75
2021/12/21 07:54:18;;;;;;;8.17;4.17;;;-4.50;99.90;;;;;;4915625;29;20185;-75
2021/12/21 07:56:44;;;;;;;13.27;4.77;;;-4.50;99.90;;;;;;4914876;29;20553;-75
2021/12/21 07:59:11;;;;;;;10.80;4.50;;;-4.40;99.90;;;;;;4915850;29;20216;-76
2021/12/21 08:01:38;;;;;;;11.23;4.73;;;-4.40;99.90;;;;;;4915401;29;20453;-75
2021/12/21 08:04:04;;;;;;;6.93;4.63;;;-4.40;99.90;;;;;;4915248;29;20793;-75
2021/12/21 08:06:32;;;;;;;14.87;5.10;;;-4.30;99.90;;;;;;4915580;29;20413;-75
2021/12/21 08:08:59;;;;;;;10.43;4.83;;;-4.20;99.90;;;;;;4915402;29;20389;-74
2021/12/21 08:12:10;;;;;;;6.17;4.40;;;-4.20;99.90;;;;;;4915431;29;20444;-75
2021/12/21 08:14:13;;;;;;;19.80;5.10;;;-4.00;99.90;;;;;;4915160;29;20487;-77
2021/12/21 08:16:38;;;;;;;13.00;4.97;;;-3.90;99.90;;;;;;4915636;29;20423;-76
2021/12/21 08:19:04;;;;;;;7.90;4.53;;;-3.80;99.90;;;;;;4915213;29;20656;-76
2021/12/21 08:21:30;;;;;;;8.47;5.50;;;-3.70;99.90;;;;;;4915169;29;20198;-76
2021/12/21 08:23:56;;;;;;;6.47;4.90;;;-3.70;99.90;;;;;;4915089;29;20166;-76
2021/12/21 08:26:22;;;;;;;13.03;4.50;;;-3.70;99.90;;;;;;4915358;29;20408;-76
2021/12/21 08:28:47;;;;;;;10.07;5.33;;;-3.60;99.90;;;;;;4915119;29;20211;-74
2021/12/21 08:31:13;;;;;;;14.13;5.93;;;-3.50;99.90;;;;;;4914948;29;20217;-75
2021/12/21 08:33:40;;;;;;;8.83;4.60;;;-3.50;99.90;;;;;;4914996;29;20531;-75
2021/12/21 08:36:08;;;;;;;10.70;5.20;;;-3.40;99.90;;;;;;4913665;29;20182;-74
2021/12/21 08:38:36;;;;;;;8.33;4.50;;;-3.40;99.90;;;;;;4915205;29;20398;-72
2021/12/21 08:41:03;;;;;;;10.17;5.20;;;-3.30;99.90;;;;;;4914885;29;20447;-73
2021/12/21 08:43:31;;;;;;;11.23;4.53;;;-3.30;99.90;;;;;;4915185;29;20659;-75
2021/12/21 08:45:56;;;;;;;7.70;5.03;;;-3.20;99.90;;;;;;4915299;29;20434;-74
2021/12/21 08:48:23;;;;;;;9.53;4.90;;;-3.10;99.90;;;;;;4914977;29;20462;-72
2021/12/21 08:50:54;;;;;;;10.60;5.53;;;-3.00;99.90;;;;;;4914880;29;20496;-73
2021/12/21 08:53:20;;;;;;;10.30;5.70;;;-2.90;99.90;;;;;;4914790;29;20501;-74
2021/12/21 08:55:46;;;;;;;17.53;5.70;;;-2.90;99.90;;;;;;4915066;29;20474;-74
2021/12/21 08:58:13;;;;;;;11.93;5.23;;;-2.80;99.90;;;;;;4914914;29;20392;-74
2021/12/21 09:00:40;;;;;;;9.47;5.50;;;-2.60;99.90;;;;;;4914827;29;20422;-73
2021/12/21 09:03:07;;;;;;;13.50;5.13;;;-2.50;99.90;;;;;;4916429;29;20763;-74
2021/12/21 09:05:33;;;;;;;7.93;5.40;;;-2.40;99.90;;;;;;4915446;29;20455;-73
2021/12/21 09:08:00;;;;;;;6.60;5.00;;;-2.20;99.90;;;;;;4917975;29;20797;-73
2021/12/21 09:10:27;;;;;;;11.10;5.07;;;-2.00;99.90;;;;;;4918327;29;20395;-72
2021/12/21 09:12:53;;;;;;;7.73;5.23;;;-1.90;99.90;;;;;;4918308;29;20389;-73
2021/12/21 09:15:21;;;;;;;10.70;4.70;;;-1.60;99.90;;;;;;4918836;29;20430;-74
2021/12/21 09:17:47;;;;;;;9.23;4.93;;;-0.80;99.90;;;;;;4918848;29;20213;-73
2021/12/21 09:20:15;;;;;;;5.53;4.50;;;0.10;99.90;;;;;;4918492;29;20429;-73
2021/12/21 09:22:42;;;;;;;9.87;5.10;;;0.60;99.90;;;;;;4918784;29;20434;-73
2021/12/21 09:25:09;;;;;;;13.00;5.77;;;1.30;99.90;;;;;;4918447;29;20415;-74
2021/12/21 09:27:35;;;;;;;11.43;5.93;;;2.70;99.90;;;;;;4918733;29;20459;-73
2021/12/21 09:30:01;;;;;;;14.10;5.30;;;3.80;99.90;;;;;;4918257;29;20388;-72
2021/12/21 09:32:27;;;;;;;8.90;5.43;;;4.40;99.90;;;;;;4918445;29;20554;-73
2021/12/21 09:34:53;;;;;;;16.87;6.30;;;5.00;99.90;;;;;;4918219;29;20425;-73
2021/12/21 09:37:20;;;;;;;9.30;6.07;;;5.40;99.90;;;;;;4918407;29;20211;-74
2021/12/21 09:39:49;;;;;;;12.83;6.27;;;5.60;99.90;;;;;;4916864;29;20569;-72
2021/12/21 09:42:18;;;;;;;9.00;5.80;;;5.60;99.90;;;;;;4918098;29;20932;-73
2021/12/21 09:44:44;;;;;;;12.33;7.60;;;5.40;99.90;;;;;;4917967;29;20423;-71
2021/12/21 09:47:11;;;;;;;9.77;7.20;;;5.40;99.90;;;;;;4917986;29;20438;-72
2021/12/21 09:49:37;;;;;;;11.27;6.90;;;5.50;99.90;;;;;;4917867;29;20481;-73
2021/12/21 09:52:05;;;;;;;10.60;7.30;;;5.60;99.90;;;;;;4914996;29;20833;-72
2021/12/21 09:54:36;;;;;;;9.50;6.37;;;5.60;99.90;;;;;;4917335;29;20784;-71
2021/12/21 09:57:03;;;;;;;9.63;6.53;;;5.80;99.90;;;;;;4917692;29;20423;-71
2021/12/21 09:59:29;;;;;;;11.20;6.50;;;5.90;99.90;;;;;;4917351;29;20399;-71
2021/12/21 10:01:57;;;;;;;10.40;7.50;;;5.90;99.90;;;;;;4917585;29;20553;-71
2021/12/21 10:04:23;;;;;;;12.27;5.87;;;6.00;99.90;;;;;;4917474;29;20308;-72
2021/12/21 10:06:52;;;;;;;9.80;7.03;;;6.20;99.90;;;;;;4917737;29;20448;-72
2021/12/21 10:09:20;;;;;;;17.80;6.63;;;6.00;99.90;;;;;;4917291;29;20427;-72
2021/12/21 10:11:48;;;;;;;15.83;8.60;;;6.00;99.90;;;;;;4917398;29;20443;-73
2021/12/21 10:14:15;;;;;;;14.63;7.57;;;6.00;99.90;;;;;;4916756;29;20425;-72
2021/12/21 10:16:42;;;;;;;9.00;6.60;;;6.20;99.90;;;;;;4917909;29;20984;-72
2021/12/21 10:19:08;;;;;;;15.53;8.83;;;6.20;99.90;;;;;;4917000;29;20774;-72
2021/12/21 10:21:44;;;;;;;11.93;6.80;;;6.20;99.90;;;;;;4917436;29;20437;-72
2021/12/21 10:24:10;;;;;;;12.27;7.27;;;6.10;99.90;;;;;;4917366;29;20298;-73
2021/12/21 10:26:35;;;;;;;13.20;6.10;;;6.00;99.90;;;;;;4915940;29;20883;-73
2021/12/21 10:29:06;;;;;;;10.30;6.20;;;6.10;99.90;;;;;;4916868;29;20191;-73
2021/12/21 10:31:42;;;;;;;9.67;6.40;;;5.90;99.90;;;;;;4917134;29;20222;-72
2021/12/21 10:34:28;;;;;;;8.63;6.10;;;5.80;99.90;;;;;;4917040;29;20934;-72
2021/12/21 10:36:54;;;;;;;11.00;6.77;;;5.70;99.90;;;;;;4917410;29;20815;-73
2021/12/21 10:39:28;;;;;;;9.57;6.87;;;5.40;99.90;;;;;;4916532;29;20403;-73
2021/12/21 10:41:59;;;;;;;11.73;6.83;;;5.40;99.90;;;;;;4916967;29;20207;-73
2021/12/21 10:44:24;;;;;;;14.57;7.23;;;5.40;99.90;;;;;;4916609;29;20394;-73
2021/12/21 10:46:53;;;;;;;11.73;6.57;;;5.50;99.90;;;;;;4916660;29;20752;-73
2021/12/21 10:49:22;;;;;;;7.40;5.37;;;5.50;99.90;;;;;;4916327;29;20214;-73
2021/12/21 10:52:09;;;;;;;6.63;5.03;;;5.40;99.90;;;;;;4916700;29;20832;-73
2021/12/21 10:54:41;;;;;;;6.37;5.77;;;5.50;99.90;;;;;;4916465;29;20531;-73
2021/12/21 10:57:12;;;;;;;12.63;5.30;;;5.20;99.90;;;;;;4916835;29;20391;-73
2021/12/21 10:59:40;;;;;;;12.57;6.00;;;5.20;99.90;;;;;;4916177;29;20454;-72
2021/12/21 11:02:15;;;;;;;10.57;5.53;;;5.10;99.90;;;;;;4916434;29;20436;-73
2021/12/21 11:04:46;;;;;;;8.53;4.73;;;5.30;99.90;;;;;;4916386;29;20479;-72
2021/12/21 11:07:41;;;;;;;7.50;5.23;;;5.40;99.90;;;;;;4916550;29;20828;-73
2021/12/21 11:10:14;;;;;;;6.77;5.33;;;5.50;99.90;;;;;;4915536;29;20461;-73
2021/12/21 11:12:53;;;;;;;16.30;5.70;;;5.50;99.90;;;;;;4914950;29;20458;-73
2021/12/21 11:15:30;;;;;;;13.10;6.50;;;5.50;99.90;;;;;;4916275;29;20935;-72
2021/12/21 11:17:56;;;;;;;5.30;4.70;;;5.00;99.90;;;;;;4916471;29;20426;-72
2021/12/21 11:20:22;;;;;;;6.73;4.80;;;5.00;99.90;;;;;;4915868;29;20751;-73
2021/12/21 11:22:52;;;;;;;9.70;5.33;;;5.00;99.90;;;;;;4915888;29;20713;-72
2021/12/21 11:25:19;;;;;;;5.40;4.83;;;4.80;99.90;;;;;;4915733;29;20475;-74
2021/12/21 11:27:45;;;;;;;6.47;5.57;;;4.70;99.90;;;;;;4914536;29;20464;-72
2021/12/21 11:30:20;;;;;;;9.60;4.93;;;4.60;99.90;;;;;;4915467;29;20411;-73
2021/12/21 11:32:49;;;;;;;6.60;5.20;;;4.70;99.90;;;;;;4915758;29;20480;-72
2021/12/21 11:37:51;;;;;;;7.67;5.60;;;5.00;99.90;;;;;;4915736;29;20424;-72
2021/12/21 11:40:22;;;;;;;6.73;4.73;;;4.90;99.90;;;;;;4915392;29;20470;-72
2021/12/21 11:42:50;;;;;;;9.73;5.77;;;4.90;99.90;;;;;;4914361;29;20443;-72
2021/12/21 11:45:20;;;;;;;11.87;6.70;;;4.80;99.90;;;;;;4915730;29;20849;-73
2021/12/21 11:48:06;;;;;;;10.00;5.53;;;4.80;99.90;;;;;;4916222;29;20521;-72
2021/12/21 11:50:32;;;;;;;6.30;4.80;;;4.80;99.90;;;;;;4915330;29;20421;-72
2021/12/21 11:53:09;;;;;;;9.33;4.97;;;4.80;99.90;;;;;;4915348;29;20523;-72
2021/12/21 11:55:39;;;;;;;12.27;6.17;;;4.70;99.90;;;;;;4916370;29;20180;-74
2021/12/21 11:58:15;;;;;;;8.17;5.43;;;4.80;99.90;;;;;;4915717;29;20424;-73
2021/12/21 12:00:49;;;;;;;12.73;5.17;;;4.70;99.90;;;;;;4914095;29;20785;-72
2021/12/21 12:03:20;;;;;;;7.90;5.63;;;4.60;99.90;;;;;;4915510;29;20419;-73
2021/12/21 12:05:56;;;;;;;6.37;5.00;;;4.60;99.90;;;;;;4915683;29;20402;-72
2021/12/21 12:08:23;;;;;;;7.60;5.60;;;4.50;99.90;;;;;;4915421;29;21048;-73
2021/12/21 12:10:54;;;;;;;9.73;5.40;;;4.60;99.90;;;;;;4914990;29;20434;-73
2021/12/21 12:13:43;;;;;;;6.30;4.63;;;4.60;99.90;;;;;;4915430;29;20416;-72
2021/12/21 12:16:14;;;;;;;10.10;5.70;;;4.60;99.90;;;;;;4915108;29;20416;-72
2021/12/21 12:18:49;;;;;;;5.40;4.93;;;4.40;99.90;;;;;;4913968;29;20417;-72
2021/12/21 12:21:20;;;;;;;8.03;5.37;;;4.50;99.90;;;;;;4912552;29;20443;-72
2021/12/21 12:23:54;;;;;;;13.30;6.07;;;4.50;99.90;;;;;;4913891;29;20451;-73
2021/12/21 12:26:21;;;;;;;4.93;4.50;;;4.50;99.90;;;;;;4914202;29;20509;-72
2021/12/21 12:28:47;;;;;;;5.57;5.00;;;4.30;99.90;;;;;;4913636;29;21004;-72
2021/12/21 12:31:29;;;;;;;12.93;4.93;;;4.20;99.90;;;;;;4913852;29;20498;-73
2021/12/21 12:33:55;;;;;;;5.60;4.50;;;4.00;99.90;;;;;;4914926;29;20176;-73
2021/12/21 12:36:36;;;;;;;8.33;5.30;;;3.80;99.90;;;;;;4915177;29;20417;-72
2021/12/21 12:39:03;;;;;;;7.37;5.30;;;3.90;99.90;;;;;;4913356;29;20211;-72
2021/12/21 12:41:29;;;;;;;6.30;5.53;;;3.80;99.90;;;;;;4914852;29;20453;-73
2021/12/21 12:43:54;;;;;;;5.10;4.43;;;3.70;99.90;;;;;;4914650;29;20446;-73
2021/12/21 12:46:26;;;;;;;6.03;4.20;;;3.70;99.90;;;;;;4915457;29;20265;-73
2021/12/21 12:48:52;;;;;;;7.73;4.80;;;3.50;99.90;;;;;;4914772;29;20583;-72
2021/12/21 12:51:38;;;;;;;7.53;5.50;;;3.50;99.90;;;;;;4914867;29;20438;-72
2021/12/21 12:54:23;;;;;;;9.70;4.57;;;3.50;99.90;;;;;;4914859;29;20178;-73
2021/12/21 12:56:49;;;;;;;7.20;5.30;;;3.60;99.90;;;;;;4915270;29;20514;-73
2021/12/21 12:59:15;;;;;;;8.43;5.13;;;3.50;99.90;;;;;;4913462;29;20503;-73
2021/12/21 13:01:44;;;;;;;6.47;4.50;;;3.40;99.90;;;;;;4914759;29;20516;-73
2021/12/21 13:04:13;;;;;;;5.37;4.23;;;3.30;99.90;;;;;;4914725;29;21004;-72
2021/12/21 13:06:41;;;;;;;7.60;5.03;;;3.30;99.90;;;;;;4915151;29;20502;-72
2021/12/21 13:09:09;;;;;;;7.00;3.83;;;3.30;99.90;;;;;;4911949;29;20434;-73
2021/12/21 13:11:37;;;;;;;9.83;4.40;;;3.30;99.90;;;;;;4914647;29;20767;-73
2021/12/21 13:14:03;;;;;;;9.77;4.97;;;3.30;99.90;;;;;;4914405;29;20395;-72
2021/12/21 13:16:31;;;;;;;22.33;5.10;;;3.30;99.90;;;;;;4914161;29;20912;-73
2021/12/21 13:19:02;;;;;;;5.70;4.60;;;3.40;99.90;;;;;;4910013;29;20444;-73
2021/12/21 13:21:32;;;;;;;11.87;4.17;;;3.30;99.90;;;;;;4904201;29;20615;-73
2021/12/21 13:24:19;;;;;;;11.90;4.00;;;3.30;99.90;;;;;;4910284;29;20958;-72
2021/12/21 13:26:56;;;;;;;7.00;5.40;;;3.20;99.90;;;;;;4911471;29;20430;-73
2021/12/21 13:29:24;;;;;;;6.83;4.33;;;3.20;99.90;;;;;;4911778;29;20487;-73
2021/12/21 13:31:52;;;;;;;12.70;4.30;;;3.10;99.90;;;;;;4911322;29;20520;-74
2021/12/21 13:34:20;;;;;;;9.03;4.30;;;3.10;99.90;;;;;;4911296;29;20396;-73
2021/12/21 13:36:58;;;;;;;4.67;4.23;;;3.10;99.90;;;;;;4911370;29;20400;-73
2021/12/21 13:39:27;;;;;;;6.83;4.60;;;3.00;99.90;;;;;;4909656;29;20427;-73
2021/12/21 13:41:55;;;;;;;12.73;4.37;;;3.00;99.90;;;;;;4909866;29;20997;-72
2021/12/21 13:44:46;;;;;;;7.43;4.63;;;3.00;99.90;;;;;;4910073;29;20453;-72
2021/12/21 13:47:21;;;;;;;6.37;3.43;;;2.90;99.90;;;;;;4908485;29;20557;-72
2021/12/21 13:50:04;;;;;;;6.20;3.40;;;3.00;99.90;;;;;;4913355;29;20513;-73
2021/12/21 13:52:56;;;;;;;7.10;4.17;;;3.00;99.90;;;;;;4914723;29;21085;-72
2021/12/21 13:55:30;;;;;;;5.07;3.70;;;3.10;99.90;;;;;;4912212;29;20412;-73
2021/12/21 13:57:59;;;;;;;6.93;3.07;;;3.00;99.90;;;;;;4914098;29;20525;-71
2021/12/21 14:00:28;;;;;;;4.43;4.07;;;3.00;99.90;;;;;;4912475;29;20413;-73
2021/12/21 14:03:15;;;;;;;8.77;3.90;;;3.00;99.90;;;;;;4911241;29;20830;-73
2021/12/21 14:05:44;;;;;;;6.67;4.60;;;3.00;99.90;;;;;;4913432;29;20437;-73
2021/12/21 14:08:11;;;;;;;8.17;3.50;;;2.90;99.90;;;;;;4914439;29;20474;-73
2021/12/21 14:10:42;;;;;;;6.33;3.73;;;2.90;99.90;;;;;;4914238;29;20422;-73
2021/12/21 14:13:08;;;;;;;8.77;3.87;;;2.90;99.90;;;;;;4913949;29;20414;-73
2021/12/21 14:15:39;;;;;;;8.07;3.00;;;2.90;99.90;;;;;;4914295;29;20397;-72
2021/12/21 14:18:42;;;;;;;4.70;3.60;;;2.90;99.90;;;;;;4910754;29;20482;-74
2021/12/21 14:21:17;;;;;;;5.17;3.77;;;2.80;99.90;;;;;;4912947;29;20456;-73
2021/12/21 14:23:46;;;;;;;6.03;4.00;;;2.80;99.90;;;;;;4913169;29;20435;-72
2021/12/21 14:26:19;;;;;;;3.90;3.50;;;2.80;99.90;;;;;;4914308;29;20426;-73
2021/12/21 14:29:07;;;;;;;5.23;3.90;;;2.80;99.90;;;;;;4913434;29;20478;-73
2021/12/21 14:31:44;;;;;;;4.00;3.60;;;2.80;99.90;;;;;;4902875;29;20476;-72
2021/12/21 14:34:11;;;;;;;7.27;3.80;;;2.70;99.90;;;;;;4913538;29;20455;-73
2021/12/21 14:36:38;;;;;;;3.93;3.13;;;2.70;99.90;;;;;;4914724;29;20908;-73
2021/12/21 14:39:10;;;;;;;5.63;4.10;;;2.70;99.90;;;;;;4912851;29;20536;-73
2021/12/21 14:41:41;;;;;;;6.33;4.10;;;2.70;99.90;;;;;;4914580;29;20963;-72
2021/12/21 14:44:10;;;;;;;5.03;3.57;;;2.70;99.90;;;;;;4913400;29;20401;-72
2021/12/21 14:46:51;;;;;;;9.10;5.27;;;2.60;99.90;;;;;;4912731;29;20499;-72
2021/12/21 14:49:47;;;;;;;4.57;3.80;;;2.60;99.90;;;;;;4913600;29;20398;-72
2021/12/21 14:52:21;;;;;;;6.90;3.70;;;2.50;99.90;;;;;;4912371;29;20439;-73
2021/12/21 14:54:51;;;;;;;5.03;3.70;;;2.40;99.90;;;;;;4911746;29;20802;-73
2021/12/21 14:57:38;;;;;;;5.10;3.80;;;2.40;99.90;;;;;;4912725;29;20481;-73
2021/12/21 15:00:08;;;;;;;4.70;3.53;;;2.30;99.90;;;;;;4913865;29;20412;-73
2021/12/21 15:05:03;;;;;;;7.43;3.40;;;2.20;99.90;;;;;;4911912;29;20762;-73
2021/12/21 15:07:29;;;;;;;8.83;3.90;;;2.10;99.90;;;;;;4911341;29;20238;-72
2021/12/21 15:09:55;;;;;;;4.67;3.37;;;2.10;99.90;;;;;;4913246;29;20385;-72
2021/12/21 15:12:22;;;;;;;5.20;4.00;;;2.00;99.90;;;;;;4914204;29;20441;-72
2021/12/21 15:14:49;;;;;;;15.43;4.90;;;2.00;99.90;;;;;;4912764;29;20491;-72
2021/12/21 15:17:14;;;;;;;10.60;3.73;;;1.90;99.90;;;;;;4913857;29;20426;-72
2021/12/21 15:19:40;;;;;;;11.73;3.83;;;1.90;99.90;;;;;;4912952;29;20389;-72
2021/12/21 15:22:06;;;;;;;3.80;3.50;;;1.90;99.90;;;;;;4913408;29;20199;-72
2021/12/21 15:24:32;;;;;;;10.40;4.23;;;1.80;99.90;;;;;;4911046;29;20207;-73
2021/12/21 15:26:57;;;;;;;6.97;4.10;;;1.70;99.90;;;;;;4911673;29;20397;-73
2021/12/21 15:29:23;;;;;;;4.03;3.63;;;1.70;99.90;;;;;;4909675;29;20615;-73
2021/12/21 15:31:48;;;;;;;5.40;3.87;;;1.60;99.90;;;;;;4913225;29;20218;-73
2021/12/21 15:34:15;;;;;;;14.23;4.20;;;1.50;99.90;;;;;;4913410;29;20269;-72
2021/12/21 15:36:42;;;;;;;6.00;4.70;;;1.40;99.90;;;;;;4913534;29;20175;-73
2021/12/21 15:39:08;;;;;;;7.50;4.00;;;1.30;99.90;;;;;;4912590;29;20421;-73
2021/12/21 15:41:34;;;;;;;7.10;4.30;;;1.20;99.90;;;;;;4912865;29;20919;-73
2021/12/21 15:44:00;;;;;;;6.70;5.00;;;1.10;99.90;;;;;;4911524;29;20222;-73
2021/12/21 15:46:26;;;;;;;11.13;4.13;;;0.90;99.90;;;;;;4910898;29;20194;-72
2021/12/21 15:48:52;;;;;;;8.57;4.37;;;0.80;99.90;;;;;;4904971;29;20217;-72
2021/12/21 15:51:18;;;;;;;7.23;4.47;;;0.70;99.90;;;;;;4912911;29;20479;-78
2021/12/21 15:53:45;;;;;;;11.27;4.80;;;0.60;99.90;;;;;;4915877;29;20907;-76
2021/12/21 15:56:15;;;;;;;9.17;4.47;;;0.60;99.90;;;;;;4915525;29;20501;-76
2021/12/21 15:58:41;;;;;;;5.13;3.13;;;0.50;99.90;;;;;;4915624;29;20915;-76
2021/12/21 16:01:07;;;;;;;8.60;4.20;;;0.30;99.90;;;;;;4915178;29;20449;-76
2021/12/21 16:03:37;;;;;;;15.33;3.53;;;0.20;99.90;;;;;;4914345;29;20775;-77
2021/12/21 16:06:02;;;;;;;4.70;3.50;;;0.10;99.90;;;;;;4915554;29;20469;-75
2021/12/21 16:08:28;;;;;;;9.33;3.90;;;0.00;99.90;;;;;;4914159;29;21119;-76
2021/12/21 16:10:54;;;;;;;7.33;4.37;;;-0.10;99.90;;;;;;4915464;29;20272;-75
2021/12/21 16:13:19;;;;;;;4.63;3.90;;;-0.20;99.90;;;;;;4914868;29;20186;-75
2021/12/21 16:15:45;;;;;;;6.83;3.83;;;-0.40;99.90;;;;;;4915404;29;20190;-76
2021/12/21 16:18:10;;;;;;;17.53;5.10;;;-0.50;99.90;;;;;;4915375;29;20551;-75
2021/12/21 16:20:36;;;;;;;10.43;3.80;;;-0.50;99.90;;;;;;4913653;29;20182;-76
2021/12/21 16:23:02;;;;;;;7.80;4.83;;;-0.60;99.90;;;;;;4915219;29;20211;-76
2021/12/21 16:25:27;;;;;;;5.70;3.60;;;-0.60;99.90;;;;;;4915534;29;20710;-77
2021/12/21 16:27:53;;;;;;;5.90;3.93;;;-0.70;99.90;;;;;;4915598;29;20666;-74
2021/12/21 16:30:39;;;;;;;6.20;4.67;;;-0.70;99.90;;;;;;4915362;29;20198;-74
2021/12/21 16:33:04;;;;;;;7.00;4.20;;;-0.80;99.90;;;;;;4915614;29;20741;-74
2021/12/21 16:35:31;;;;;;;8.03;4.80;;;-0.80;99.90;;;;;;4915484;29;20385;-73
2021/12/21 16:37:57;;;;;;;15.13;4.77;;;-0.90;99.90;;;;;;4914558;29;20180;-75
2021/12/21 16:40:23;;;;;;;4.10;3.70;;;-0.90;99.90;;;;;;4915259;29;20925;-74
2021/12/21 16:42:49;;;;;;;6.43;3.93;;;-0.90;99.90;;;;;;4915250;29;20700;-73
2021/12/21 16:45:15;;;;;;;11.60;4.30;;;-0.90;99.90;;;;;;4915642;29;20508;-74
2021/12/21 16:47:41;;;;;;;9.70;4.23;;;-1.00;99.90;;;;;;4915662;29;20205;-74
2021/12/21 16:50:07;;;;;;;9.27;4.77;;;-1.10;99.90;;;;;;4914943;29;20418;-74
2021/12/21 16:52:33;;;;;;;5.50;4.20;;;-1.10;99.90;;;;;;4915207;29;20408;-73
2021/12/21 16:55:00;;;;;;;12.90;4.27;;;-1.10;99.90;;;;;;4913775;29;20794;-74
2021/12/21 16:57:28;;;;;;;9.20;4.60;;;-1.20;99.90;;;;;;4915353;29;20180;-74
2021/12/21 16:59:58;;;;;;;9.50;5.23;;;-1.20;99.90;;;;;;4914971;29;20847;-73
2021/12/21 17:02:24;;;;;;;12.53;5.80;;;-1.20;99.90;;;;;;4915344;29;20849;-74
2021/12/21 17:04:49;;;;;;;9.63;5.30;;;-1.30;99.90;;;;;;4914918;29;20430;-73
2021/12/21 17:07:15;;;;;;;9.30;5.67;;;-1.30;99.90;;;;;;4914914;29;20501;-74
2021/12/21 17:09:41;;;;;;;12.43;5.30;;;-1.30;99.90;;;;;;4913789;29;20570;-74
2021/12/21 17:12:06;;;;;;;13.73;5.60;;;-1.40;99.90;;;;;;4914932;29;20231;-73
2021/12/21 17:14:32;;;;;;;12.20;5.73;;;-1.40;99.90;;;;;;4914907;29;20185;-74
2021/12/21 17:16:57;;;;;;;15.63;7.90;;;-1.40;99.90;;;;;;4915059;29;20213;-74
2021/12/21 17:19:23;;;;;;;42.03;15.30;;;-1.40;99.90;;;;;;4915229;29;20660;-73
2021/12/21 17:21:48;;;;;;;23.40;8.67;;;-1.40;99.90;;;;;;4915391;29;20674;-73
2021/12/21 17:24:14;;;;;;;10.40;6.67;;;-1.50;99.90;;;;;;4917407;29;20225;-73
2021/12/21 17:26:39;;;;;;;13.57;5.70;;;-1.50;99.90;;;;;;4918820;29;20184;-73
2021/12/21 17:29:05;;;;;;;9.87;5.80;;;-1.50;99.90;;;;;;4918393;29;20245;-73
2021/12/21 17:31:31;;;;;;;9.83;6.40;;;-1.60;99.90;;;;;;4918800;29;20706;-74
2021/12/21 17:33:58;;;;;;;11.87;5.97;;;-1.60;99.90;;;;;;4918561;29;20197;-73
2021/12/21 17:36:25;;;;;;;19.80;8.23;;;-1.60;99.90;;;;;;4918826;29;20169;-73
2021/12/21 17:38:51;;;;;;;10.43;6.00;;;-1.70;99.90;;;;;;4918396;29;20474;-73
2021/12/21 17:41:17;;;;;;;12.80;6.30;;;-1.70;99.90;;;;;;4918565;29;20532;-74
2021/12/21 17:43:43;;;;;;;10.73;5.53;;;-1.70;99.90;;;;;;4933398;29;20188;-74
2021/12/21 17:46:09;;;;;;;11.07;5.50;;;-1.70;99.90;;;;;;4918344;29;20404;-73
2021/12/21 17:48:35;;;;;;;7.43;5.27;;;-1.80;99.90;;;;;;4918353;29;20224;-73
2021/12/21 17:51:02;;;;;;;7.40;5.60;;;-1.80;99.90;;;;;;4918380;29;20435;-73
2021/12/21 17:53:27;;;;;;;13.47;6.80;;;-1.80;99.90;;;;;;4918437;29;20182;-73
2021/12/21 17:55:53;;;;;;;14.03;6.87;;;-1.80;99.90;;;;;;4919773;29;20421;-74
2021/12/21 17:58:21;;;;;;;8.23;5.80;;;-1.80;99.90;;;;;;4919529;29;20188;-75